Colby, KS

6:25 AM CDT on October 18, 2017 (GMT -0500)
Shaltz

Weather History for KCBK - October, 2012

Change the Weather History Date:

Sunday, October 7, 2012

  Actual Average (KGLD) Record (KGLD)
Temperature  
Mean Temperature 40 °F -  
Max Temperature 51 °F 72 °F 95 °F (1934)
Min Temperature 30 °F 41 °F 13 °F (1952)
Degree Days  
Heating Degree Days 24    
Moisture  
Dew Point 36 °F    
Average Humidity 90    
Maximum Humidity 100    
Minimum Humidity 58    
Precipitation  
Precipitation 0.00 in - - ()
Sea Level Pressure  
Sea Level Pressure 30.20 in    
Wind  
Wind Speed 4 mph ()    
Max Wind Speed 16 mph    
Max Gust Speed 21 mph    
Visibility 9.3 miles    
Events      
Averages and records for this station are not official NWS values.
T = Trace of Precipitation, MM = Missing Value Source: Averaged Metar Reports

Daily Weather History Graph

Daily Weather History Graph

Search for Another Location

Airport or City:

Trip Planner

Search our weather history database for the weather conditions in past years. The results will help you decide how hot, cold, wet, or windy it might be!

Date:

Astronomy

Oct. 07, 2012 Rise Set
Actual Time 7:46 AM CDT 7:16 PM CDT
Civil Twilight 7:19 AM CDT 7:43 PM CDT
Nautical Twilight 6:48 AM CDT 8:14 PM CDT
Astronomical Twilight 6:17 AM CDT 8:45 PM CDT
Moon No Moon Rise 2:23 PM CDT (10/7)
Length of Visible Light 12h 23m
Length of Day
11h 29m
Waning Gibbous, 56% of the Moon is Illuminated
Oct 7
Waning Gibbous
Oct 8
Last Quarter
Oct 15
New
Oct 21
First Quarter
Oct 29
Full

Hourly Weather History & Observations

Time (CDT) Temp. Windchill Dew Point Humidity Pressure Visibility Wind Dir Wind Speed Gust Speed Precip Events Conditions
12:15 AM 33.8 °F - 33.8 °F 100% 30.35 in 10.0 mi Calm Calm - N/A   Overcast
12:35 AM 33.8 °F - 33.8 °F 100% 30.35 in 10.0 mi Calm Calm - N/A   Overcast
12:55 AM 33.8 °F - 33.8 °F 100% 30.34 in 10.0 mi Calm Calm - N/A   Overcast
1:15 AM 33.8 °F 30.8 °F 33.8 °F 100% 30.34 in 10.0 mi West 3.5 mph - N/A   Overcast
1:35 AM 33.8 °F - 33.8 °F 100% 30.32 in 10.0 mi Calm Calm - N/A   Mostly Cloudy
1:55 AM 32.0 °F - 32.0 °F 100% 30.32 in 10.0 mi Calm Calm - N/A   Clear
2:15 AM 32.0 °F 27.5 °F 32.0 °F 100% 30.32 in 10.0 mi SSW 4.6 mph - N/A   Clear
2:35 AM 32.0 °F 27.5 °F 32.0 °F 100% 30.32 in 10.0 mi SSW 4.6 mph - N/A   Scattered Clouds
2:55 AM 32.0 °F 28.7 °F 32.0 °F 100% 30.31 in 7.0 mi SW 3.5 mph - N/A   Scattered Clouds
3:15 AM 32.0 °F 28.7 °F 32.0 °F 100% 30.31 in 10.0 mi SSW 3.5 mph - N/A   Clear
3:35 AM 32.0 °F 27.5 °F 32.0 °F 100% 30.30 in 10.0 mi SSW 4.6 mph - N/A   Scattered Clouds
3:55 AM 32.0 °F 27.5 °F 32.0 °F 100% 30.29 in 10.0 mi WSW 4.6 mph - N/A   Scattered Clouds
4:15 AM 30.2 °F - 30.2 °F 100% 30.29 in 10.0 mi Calm Calm - N/A   Clear
4:35 AM 30.2 °F - 30.2 °F 100% 30.28 in 10.0 mi Calm Calm - N/A   Mostly Cloudy
4:55 AM 30.2 °F 26.7 °F 30.2 °F 100% 30.28 in 10.0 mi SW 3.5 mph - N/A   Overcast
5:15 AM 32.0 °F - 32.0 °F 100% 30.27 in 7.0 mi Calm Calm - N/A   Overcast
5:35 AM 32.0 °F 28.7 °F 32.0 °F 100% 30.27 in 7.0 mi SW 3.5 mph - N/A   Mostly Cloudy
5:55 AM 32.0 °F 27.5 °F 32.0 °F 100% 30.27 in 10.0 mi SW 4.6 mph - N/A   Overcast
6:15 AM 32.0 °F 25.6 °F 32.0 °F 100% 30.27 in 10.0 mi SW 6.9 mph - N/A   Overcast
6:35 AM 32.0 °F 28.7 °F 32.0 °F 100% 30.26 in 10.0 mi SW 3.5 mph - N/A   Overcast
6:55 AM 32.0 °F 28.7 °F 32.0 °F 100% 30.26 in 10.0 mi South 3.5 mph - N/A   Overcast
7:15 AM 32.0 °F - 32.0 °F 100% 30.25 in 10.0 mi Calm Calm - N/A   Overcast
7:35 AM 32.0 °F 28.7 °F 32.0 °F 100% 30.26 in 10.0 mi SSW 3.5 mph - N/A   Overcast
7:55 AM 32.0 °F - 32.0 °F 100% 30.26 in 10.0 mi Calm Calm - N/A   Overcast
8:15 AM 33.8 °F 30.8 °F 33.8 °F 100% 30.26 in 10.0 mi South 3.5 mph - N/A   Overcast
8:35 AM 33.8 °F - 33.8 °F 100% 30.26 in 10.0 mi Calm Calm - N/A   Overcast
8:55 AM 33.8 °F - 33.8 °F 100% 30.26 in 5.0 mi Calm Calm - N/A   Overcast
9:35 AM 33.8 °F 30.8 °F 33.8 °F 100% 30.26 in 3.0 mi SSW 3.5 mph - N/A   Overcast
9:55 AM 35.6 °F 32.8 °F 35.6 °F 100% 30.26 in 2.5 mi South 3.5 mph - N/A   Overcast
10:15 AM 35.6 °F 30.7 °F 35.6 °F 100% 30.26 in 2.0 mi South 5.8 mph - N/A   Overcast
10:35 AM 35.6 °F 31.7 °F 35.6 °F 100% 30.26 in 4.0 mi South 4.6 mph - N/A   Overcast
10:55 AM 35.6 °F 31.7 °F 35.6 °F 100% 30.25 in 7.0 mi South 4.6 mph - N/A   Overcast
11:15 AM 37.4 °F 32.8 °F 37.4 °F 100% 30.25 in 7.0 mi SSW 5.8 mph - N/A   Overcast
11:35 AM 39.2 °F 32.5 °F 39.2 °F 100% 30.24 in 10.0 mi SSW 10.4 mph - N/A   Overcast
11:55 AM 41.0 °F 35.8 °F 39.2 °F 93% 30.24 in 10.0 mi SSW 8.1 mph - N/A   Overcast
12:15 PM 41.0 °F 35.2 °F 39.2 °F 93% 30.23 in 10.0 mi SSW 9.2 mph - N/A   Overcast
12:35 PM 42.8 °F 38.6 °F 41.0 °F 93% 30.21 in 10.0 mi SSW 6.9 mph - N/A   Overcast
12:55 PM 44.6 °F 38.4 °F 41.0 °F 87% 30.20 in 10.0 mi SW 12.7 mph 16.1 mph N/A   Overcast
1:15 PM 44.6 °F 37.8 °F 41.0 °F 87% 30.20 in 10.0 mi SW 15.0 mph 18.4 mph N/A   Overcast
1:35 PM 44.6 °F 37.4 °F 41.0 °F 87% 30.19 in 10.0 mi SW 16.1 mph - N/A   Overcast
1:55 PM 44.6 °F 38.1 °F 41.0 °F 87% 30.18 in 10.0 mi SW 13.8 mph - N/A   Overcast
2:35 PM 46.4 °F 39.8 °F 41.0 °F 81% 30.15 in 10.0 mi SSW 16.1 mph - N/A   Overcast
2:55 PM 46.4 °F 39.8 °F 41.0 °F 81% 30.14 in 10.0 mi SW 16.1 mph 20.7 mph N/A   Scattered Clouds
3:15 PM 48.2 °F - 41.0 °F 76% 30.13 in 10.0 mi SSW 15.0 mph 18.4 mph N/A   Scattered Clouds
3:35 PM 50.0 °F - 41.0 °F 71% 30.12 in 10.0 mi SSW 13.8 mph 20.7 mph N/A   Scattered Clouds
3:55 PM 50.0 °F - 41.0 °F 71% 30.11 in 10.0 mi SW 12.7 mph 19.6 mph N/A   Scattered Clouds
4:15 PM 50.0 °F - 39.2 °F 66% 30.10 in 10.0 mi SSW 13.8 mph 18.4 mph N/A   Scattered Clouds
4:35 PM 50.0 °F - 39.2 °F 66% 30.10 in 10.0 mi SW 11.5 mph 19.6 mph N/A   Scattered Clouds
4:55 PM 51.8 °F - 39.2 °F 62% 30.09 in 10.0 mi SSW 10.4 mph - N/A   Scattered Clouds
5:15 PM 51.8 °F - 39.2 °F 62% 30.08 in 10.0 mi SSW 12.7 mph - N/A   Scattered Clouds
5:35 PM 51.8 °F - 39.2 °F 62% 30.08 in 10.0 mi SSW 10.4 mph - N/A   Clear
5:55 PM 51.8 °F - 39.2 °F 62% 30.07 in 10.0 mi SW 11.5 mph - N/A   Clear
6:15 PM 51.8 °F - 39.2 °F 62% 30.07 in 10.0 mi SSW 9.2 mph - N/A   Clear
6:35 PM 51.8 °F - 37.4 °F 58% 30.07 in 10.0 mi SW 9.2 mph - N/A   Clear
6:55 PM 50.0 °F - 39.2 °F 66% 30.07 in 10.0 mi SSW 5.8 mph - N/A   Clear
7:15 PM 48.2 °F - 39.2 °F 71% 30.07 in 10.0 mi South 5.8 mph - N/A   Clear
7:35 PM 46.4 °F 43.5 °F 37.4 °F 71% 30.07 in 10.0 mi South 5.8 mph - N/A   Clear
7:55 PM 44.6 °F 42.2 °F 37.4 °F 76% 30.07 in 10.0 mi SSW 4.6 mph - N/A   Clear
8:15 PM 41.0 °F 38.0 °F 35.6 °F 81% 30.08 in 10.0 mi WSW 4.6 mph - N/A   Clear
8:55 PM 41.0 °F 34.7 °F 37.4 °F 87% 30.09 in 10.0 mi WSW 10.4 mph - N/A   Clear
9:15 PM 41.0 °F 36.4 °F 37.4 °F 87% 30.09 in 10.0 mi WSW 6.9 mph - N/A   Clear
9:35 PM 41.0 °F 37.1 °F 35.6 °F 81% 30.09 in 10.0 mi SW 5.8 mph - N/A   Clear
9:55 PM 37.4 °F 32.8 °F 35.6 °F 93% 30.09 in 10.0 mi SW 5.8 mph - N/A   Clear
10:15 PM 37.4 °F 33.8 °F 35.6 °F 93% 30.09 in 10.0 mi WSW 4.6 mph - N/A   Clear
10:35 PM 35.6 °F 31.7 °F 33.8 °F 93% 30.09 in 10.0 mi SW 4.6 mph - N/A   Clear
10:55 PM 33.8 °F 27.7 °F 33.8 °F 100% 30.09 in 10.0 mi SW 6.9 mph - N/A   Clear
11:15 PM 32.0 °F 27.5 °F 32.0 °F 100% 30.08 in 10.0 mi WSW 4.6 mph - N/A   Clear
11:35 PM 32.0 °F 26.4 °F 32.0 °F 100% 30.08 in 10.0 mi WSW 5.8 mph - N/A   Clear
11:55 PM 32.0 °F 26.4 °F 32.0 °F 100% 30.07 in 10.0 mi WSW 5.8 mph - N/A   Clear